createdAt,value
2023-05-21T00:03:38.025Z,63.39
2023-05-21T00:07:35.964Z,63.45
2023-05-21T00:11:34.016Z,63.57
2023-05-21T00:15:32.032Z,63.71
2023-05-21T00:19:30.005Z,63.76
2023-05-21T00:23:27.992Z,63.91
2023-05-21T00:27:25.942Z,63.99
2023-05-21T00:31:23.994Z,63.89
2023-05-21T00:35:21.964Z,63.84
2023-05-21T00:39:19.921Z,63.89
2023-05-21T00:43:17.897Z,64.00
2023-05-21T00:47:16.908Z,64.10
2023-05-21T00:51:14.993Z,64.38
2023-05-21T00:55:12.910Z,64.57
2023-05-21T00:59:11.922Z,64.66
2023-05-21T01:03:10.001Z,64.83
2023-05-21T01:07:08.875Z,64.99
2023-05-21T01:11:07.871Z,65.24
2023-05-21T01:15:06.938Z,65.31
2023-05-21T01:19:04.948Z,65.51
2023-05-21T01:23:08.878Z,65.61
2023-05-21T01:27:06.829Z,65.96
2023-05-21T01:31:04.856Z,66.42
2023-05-21T01:35:34.991Z,66.58
2023-05-21T01:39:42.848Z,66.94
2023-05-21T01:43:43.843Z,67.22
2023-05-21T01:47:45.848Z,67.32
2023-05-21T01:51:43.826Z,67.74
2023-05-21T01:55:42.018Z,68.38
2023-05-21T01:59:39.809Z,69.24
2023-05-21T02:03:39.873Z,69.80
2023-05-21T02:07:38.802Z,70.52
2023-05-21T02:11:36.825Z,70.66
2023-05-21T02:15:35.228Z,71.19
2023-05-21T02:19:34.014Z,71.55
2023-05-21T02:23:31.793Z,71.75
2023-05-21T02:27:29.846Z,71.81
2023-05-21T02:31:27.769Z,71.82
2023-05-21T02:35:27.865Z,72.07
2023-05-21T02:39:25.761Z,72.24
2023-05-21T02:43:23.794Z,72.42
2023-05-21T02:47:21.744Z,72.31
2023-05-21T02:51:19.924Z,72.46
2023-05-21T02:55:17.824Z,72.45
2023-05-21T02:59:15.838Z,72.42
2023-05-21T03:03:13.809Z,72.42
2023-05-21T03:07:11.771Z,72.24
2023-05-21T03:11:09.786Z,72.14
2023-05-21T03:15:07.783Z,71.67
2023-05-21T03:19:05.839Z,69.48
2023-05-21T03:23:03.746Z,66.00
2023-05-21T03:27:01.714Z,62.37
2023-05-21T03:30:59.738Z,59.24
2023-05-21T03:35:14.711Z,55.98
2023-05-21T03:39:12.687Z,53.75
2023-05-21T03:43:10.703Z,50.96
2023-05-21T03:47:08.741Z,48.88
2023-05-21T03:51:06.688Z,47.31
2023-05-21T03:55:04.722Z,45.47
2023-05-21T03:59:22.687Z,43.89
2023-05-21T04:03:20.988Z,43.05
2023-05-21T04:07:21.680Z,42.22
2023-05-21T04:11:19.693Z,41.23
2023-05-21T04:15:17.664Z,39.94
2023-05-21T04:19:15.778Z,39.18
2023-05-21T04:23:13.672Z,38.42
2023-05-21T04:27:11.693Z,37.88
2023-05-21T04:31:09.725Z,36.56
2023-05-21T04:35:07.738Z,36.02
2023-05-21T04:39:05.662Z,35.12
2023-05-21T04:43:03.674Z,34.91
2023-05-21T04:47:01.736Z,34.57
2023-05-21T04:51:01.632Z,35.41
2023-05-21T04:55:00.692Z,35.59
2023-05-21T04:58:58.765Z,36.56
2023-05-21T05:02:57.753Z,35.52
2023-05-21T05:06:55.803Z,35.54
2023-05-21T05:10:53.618Z,36.24
2023-05-21T05:14:51.642Z,35.49
2023-05-21T05:18:49.645Z,36.31
2023-05-21T05:22:47.623Z,40.14
2023-05-21T05:26:45.647Z,43.34
2023-05-21T05:30:43.685Z,46.58
2023-05-21T05:34:47.606Z,49.06
2023-05-21T05:38:45.616Z,48.44
2023-05-21T05:42:43.588Z,49.94
2023-05-21T05:46:41.636Z,51.45
2023-05-21T05:50:39.633Z,51.37
2023-05-21T05:54:38.615Z,51.53
2023-05-21T05:58:29.678Z,51.47
2023-05-21T06:02:33.696Z,52.95
2023-05-21T06:06:31.615Z,53.64
2023-05-21T06:10:29.671Z,54.67
2023-05-21T06:14:27.563Z,55.08
2023-05-21T06:18:25.650Z,55.58
2023-05-21T06:22:25.465Z,55.28
2023-05-21T06:26:25.557Z,55.67
2023-05-21T06:30:23.810Z,55.17
2023-05-21T06:34:21.548Z,55.01
2023-05-21T06:38:19.555Z,54.69
2023-05-21T06:42:17.528Z,53.74
2023-05-21T06:46:37.598Z,54.25
2023-05-21T06:50:35.577Z,54.06
2023-05-21T06:54:33.534Z,53.67
2023-05-21T06:58:31.557Z,53.36
2023-05-21T07:02:29.762Z,53.58
2023-05-21T07:06:28.538Z,54.17
2023-05-21T07:10:26.566Z,54.26
2023-05-21T07:14:24.532Z,54.71
2023-05-21T07:18:23.575Z,53.62
2023-05-21T07:22:25.982Z,53.62
2023-05-21T07:26:25.500Z,53.85
2023-05-21T07:30:24.629Z,53.60
2023-05-21T07:34:22.495Z,53.66
2023-05-21T07:38:20.512Z,53.17
2023-05-21T07:42:18.489Z,53.73
2023-05-21T07:46:16.598Z,55.09
2023-05-21T07:50:16.511Z,54.91
2023-05-21T07:54:14.505Z,53.58
2023-05-21T07:58:12.469Z,53.49
2023-05-21T08:02:10.506Z,53.54
2023-05-21T08:06:08.468Z,52.29
2023-05-21T08:10:06.455Z,51.75
2023-05-21T08:14:04.515Z,50.52
2023-05-21T08:18:02.550Z,50.10
2023-05-21T08:22:00.458Z,49.32
2023-05-21T08:26:02.476Z,50.03
2023-05-21T08:30:00.430Z,50.22
2023-05-21T08:34:09.556Z,49.13
2023-05-21T08:38:05.600Z,49.44
2023-05-21T08:42:40.445Z,49.54
2023-05-21T08:46:47.439Z,48.46
2023-05-21T08:50:46.495Z,49.31
2023-05-21T08:54:50.462Z,49.38
2023-05-21T08:58:49.508Z,48.82
2023-05-21T09:02:53.427Z,47.06
2023-05-21T09:06:51.450Z,46.40
2023-05-21T09:11:12.379Z,45.98
2023-05-21T09:15:16.414Z,46.80
2023-05-21T09:19:14.457Z,47.34
2023-05-21T09:23:19.495Z,46.13
2023-05-21T09:27:21.387Z,46.65
2023-05-21T09:31:32.443Z,46.18
2023-05-21T09:35:30.366Z,47.15
2023-05-21T09:39:42.465Z,46.32
2023-05-21T09:43:40.364Z,45.91
2023-05-21T09:47:40.398Z,45.86
2023-05-21T09:51:38.405Z,45.33
2023-05-21T09:55:41.389Z,44.80
2023-05-21T09:59:49.367Z,44.61
2023-05-21T10:03:51.437Z,42.87
2023-05-21T10:07:50.345Z,41.88
2023-05-21T10:11:49.378Z,43.21
2023-05-21T10:15:53.346Z,42.92
2023-05-21T10:19:52.341Z,43.51
2023-05-21T10:23:52.366Z,44.13
2023-05-21T10:27:51.390Z,42.14
2023-05-21T10:31:50.413Z,41.34
2023-05-21T10:35:48.356Z,41.55
2023-05-21T10:39:47.394Z,42.03
2023-05-21T10:43:57.388Z,43.13
2023-05-21T10:48:14.357Z,43.21
2023-05-21T10:52:17.477Z,43.54
2023-05-21T10:56:32.332Z,43.45
2023-05-21T11:00:32.370Z,42.23
2023-05-21T11:04:30.356Z,41.77
2023-05-21T11:08:42.338Z,40.95
2023-05-21T11:12:40.345Z,39.40
2023-05-21T11:16:38.370Z,40.37
2023-05-21T11:20:36.536Z,41.78
2023-05-21T11:24:35.299Z,41.32
2023-05-21T11:28:47.279Z,41.88
2023-05-21T11:32:45.362Z,41.99
2023-05-21T11:36:43.289Z,42.34
2023-05-21T11:40:41.297Z,41.62
2023-05-21T11:44:58.278Z,41.92
2023-05-21T11:48:59.378Z,41.06
2023-05-21T11:52:57.273Z,41.36
2023-05-21T11:56:55.271Z,39.59
2023-05-21T12:00:54.234Z,38.88
2023-05-21T12:04:52.314Z,37.22
2023-05-21T12:08:50.268Z,38.22
2023-05-21T12:12:55.652Z,37.11
2023-05-21T12:16:55.334Z,37.88
2023-05-21T12:20:53.322Z,37.55
2023-05-21T12:24:52.217Z,37.50
2023-05-21T12:28:50.351Z,36.79
2023-05-21T12:32:49.338Z,35.84
2023-05-21T12:36:47.229Z,35.11
2023-05-21T12:40:52.249Z,36.43
2023-05-21T12:44:50.269Z,37.46
2023-05-21T12:48:27.837Z,36.83
2023-05-21T12:51:51.760Z,37.09
2023-05-21T12:55:16.193Z,38.15
2023-05-21T12:58:41.228Z,37.50
2023-05-21T13:02:05.517Z,37.29
2023-05-21T13:05:29.612Z,38.03
2023-05-21T13:08:55.826Z,37.20
2023-05-21T13:12:23.774Z,37.36
2023-05-21T13:15:49.585Z,37.78
2023-05-21T13:19:15.458Z,38.22
2023-05-21T13:22:42.683Z,38.03
2023-05-21T13:26:06.762Z,36.59
2023-05-21T13:29:30.820Z,36.91
2023-05-21T13:32:55.021Z,36.51
2023-05-21T13:36:19.223Z,36.44
2023-05-21T13:39:43.594Z,35.91
2023-05-21T13:43:07.461Z,35.02
2023-05-21T13:46:31.812Z,33.50
2023-05-21T13:49:55.903Z,32.58
2023-05-21T13:53:19.837Z,33.90
2023-05-21T13:56:43.716Z,34.33
2023-05-21T14:00:09.339Z,34.21
2023-05-21T14:03:34.454Z,34.47
2023-05-21T14:06:58.937Z,32.90
2023-05-21T14:10:23.351Z,34.25
2023-05-21T14:13:48.307Z,33.55
2023-05-21T14:17:12.340Z,31.07
2023-05-21T14:20:36.688Z,31.16
2023-05-21T14:24:00.585Z,31.11
2023-05-21T14:27:24.409Z,30.91
2023-05-21T14:30:48.511Z,32.37
2023-05-21T14:34:12.382Z,32.52
2023-05-21T14:37:36.198Z,32.76
2023-05-21T14:41:00.178Z,34.47
2023-05-21T14:44:24.066Z,33.27
2023-05-21T14:47:49.115Z,33.14
2023-05-21T14:51:13.561Z,33.53
2023-05-21T14:54:38.220Z,33.12
2023-05-21T14:58:03.290Z,33.08
2023-05-21T15:01:32.267Z,33.30
2023-05-21T15:04:56.904Z,32.85
2023-05-21T15:08:20.832Z,33.12
2023-05-21T15:11:46.187Z,32.65
2023-05-21T15:15:10.630Z,31.99
2023-05-21T15:18:35.128Z,32.37
2023-05-21T15:21:59.017Z,31.54
2023-05-21T15:25:22.941Z,31.74
2023-05-21T15:28:47.288Z,32.69
2023-05-21T15:32:11.209Z,32.29
2023-05-21T15:35:36.842Z,32.02
2023-05-21T15:39:03.575Z,31.98
2023-05-21T15:42:31.322Z,31.59
2023-05-21T15:45:55.267Z,31.98
2023-05-21T15:49:19.190Z,32.34
2023-05-21T15:52:43.284Z,32.09
2023-05-21T15:56:09.148Z,32.25
2023-05-21T15:59:32.986Z,32.95
2023-05-21T16:02:57.018Z,33.84
2023-05-21T16:06:21.050Z,33.74
2023-05-21T16:09:45.203Z,34.38
2023-05-21T16:13:09.223Z,34.23
2023-05-21T16:16:33.210Z,34.75
2023-05-21T16:19:57.411Z,35.00
2023-05-21T16:23:21.461Z,35.73
2023-05-21T16:26:46.125Z,35.96
2023-05-21T16:30:11.953Z,35.33
2023-05-21T16:33:36.106Z,34.94
2023-05-21T16:37:00.004Z,35.66
2023-05-21T16:40:24.018Z,35.66
2023-05-21T16:43:48.072Z,35.85
2023-05-21T16:47:11.956Z,35.27
2023-05-21T16:50:36.877Z,35.46
2023-05-21T16:54:02.883Z,35.71
2023-05-21T16:57:26.736Z,35.96
2023-05-21T17:00:50.758Z,36.80
2023-05-21T17:04:14.953Z,36.83
2023-05-21T17:07:39.372Z,37.35
2023-05-21T17:11:03.494Z,37.61
2023-05-21T17:14:34.488Z,37.78
2023-05-21T17:17:59.182Z,38.03
2023-05-21T17:21:23.128Z,38.41
2023-05-21T17:24:47.094Z,38.79
2023-05-21T17:28:11.343Z,38.95
2023-05-21T17:31:35.631Z,39.47
2023-05-21T17:34:59.562Z,39.84
2023-05-21T17:38:23.783Z,40.21
2023-05-21T17:41:57.171Z,40.61
2023-05-21T17:45:21.423Z,41.13
2023-05-21T17:48:46.323Z,41.13
2023-05-21T17:52:10.367Z,41.64
2023-05-21T17:55:34.579Z,42.06
2023-05-21T17:58:58.890Z,42.28
2023-05-21T18:02:23.636Z,42.60
2023-05-21T18:05:47.589Z,43.24
2023-05-21T18:09:14.414Z,43.49
2023-05-21T18:12:38.660Z,44.04
2023-05-21T18:16:02.490Z,44.22
2023-05-21T18:19:27.009Z,44.24
2023-05-21T18:22:51.026Z,44.46
2023-05-21T18:26:16.832Z,44.83
2023-05-21T18:29:40.755Z,45.21
2023-05-21T18:33:04.835Z,45.32
2023-05-21T18:36:29.132Z,45.49
2023-05-21T18:39:53.002Z,45.57
2023-05-21T18:43:17.846Z,45.72
2023-05-21T18:46:42.384Z,45.74
2023-05-21T18:50:15.874Z,45.95
2023-05-21T18:53:40.564Z,46.07
2023-05-21T18:57:04.515Z,46.02
2023-05-21T19:00:28.860Z,46.30
2023-05-21T19:03:53.114Z,46.33
2023-05-21T19:07:17.165Z,46.57
2023-05-21T19:10:41.353Z,46.97
2023-05-21T19:14:05.835Z,46.58
2023-05-21T19:17:29.895Z,46.77
2023-05-21T19:20:53.770Z,47.02
2023-05-21T19:24:17.676Z,47.01
2023-05-21T19:27:41.563Z,47.26
2023-05-21T19:31:05.597Z,47.43
2023-05-21T19:34:29.610Z,47.73
2023-05-21T19:37:54.655Z,48.05
2023-05-21T19:41:20.099Z,48.21
2023-05-21T19:44:44.125Z,48.38
2023-05-21T19:48:08.353Z,48.59
2023-05-21T19:51:32.676Z,48.62
2023-05-21T19:55:04.458Z,48.63
2023-05-21T19:58:30.628Z,48.87
2023-05-21T20:01:54.976Z,48.96
2023-05-21T20:05:20.136Z,49.04
2023-05-21T20:08:44.358Z,49.18
2023-05-21T20:12:09.802Z,49.32
2023-05-21T20:15:34.728Z,49.37
2023-05-21T20:19:01.780Z,49.51
2023-05-21T20:22:26.005Z,49.66
2023-05-21T20:25:50.494Z,49.88
2023-05-21T20:29:14.742Z,49.98
2023-05-21T20:32:38.734Z,50.06
2023-05-21T20:36:04.278Z,50.42
2023-05-21T20:39:29.600Z,50.52
2023-05-21T20:42:54.262Z,50.59
2023-05-21T20:46:19.017Z,50.77
2023-05-21T20:49:43.939Z,50.83
2023-05-21T20:53:07.905Z,51.26
2023-05-21T20:59:59.189Z,51.19
2023-05-21T21:03:23.803Z,51.64
2023-05-21T21:06:48.418Z,51.68
2023-05-21T21:10:12.736Z,51.90
2023-05-21T21:13:37.414Z,52.33
2023-05-21T21:17:01.860Z,52.71
2023-05-21T21:20:26.607Z,52.98
2023-05-21T21:23:51.197Z,53.07
2023-05-21T21:27:15.359Z,53.01
2023-05-21T21:30:41.340Z,53.34
2023-05-21T21:34:05.551Z,53.38
2023-05-21T21:37:29.912Z,53.56
2023-05-21T21:40:54.586Z,53.95
2023-05-21T21:44:18.885Z,54.12
2023-05-21T21:47:42.930Z,53.91
2023-05-21T21:51:08.322Z,53.93
2023-05-21T21:54:32.443Z,54.24
2023-05-21T21:57:56.887Z,53.74
2023-05-21T22:01:21.097Z,53.23
2023-05-21T22:04:46.696Z,53.96
2023-05-21T22:08:11.184Z,55.31
2023-05-21T22:11:35.305Z,55.19
2023-05-21T22:15:04.590Z,55.03
2023-05-21T22:18:40.331Z,55.41
2023-05-21T22:22:25.698Z,55.33
2023-05-21T22:26:24.740Z,55.38
2023-05-21T22:30:22.693Z,56.11
2023-05-21T22:34:20.711Z,56.47
2023-05-21T22:38:18.648Z,56.86
2023-05-21T22:42:16.705Z,57.91
2023-05-21T22:46:14.706Z,59.49
2023-05-21T22:50:12.677Z,59.01
2023-05-21T22:54:10.666Z,59.02
2023-05-21T22:58:08.672Z,60.26
2023-05-21T23:02:06.688Z,61.96
2023-05-21T23:06:04.667Z,61.35
2023-05-21T23:10:02.632Z,61.08
2023-05-21T23:14:00.659Z,60.78
2023-05-21T23:17:58.611Z,61.17
2023-05-21T23:21:57.694Z,61.95
2023-05-21T23:25:55.638Z,62.73
2023-05-21T23:29:53.635Z,62.23
2023-05-21T23:33:51.638Z,62.81
2023-05-21T23:37:49.633Z,64.56
2023-05-21T23:41:47.584Z,63.58
2023-05-21T23:45:45.720Z,63.71
2023-05-21T23:49:43.569Z,64.97
2023-05-21T23:53:41.602Z,65.38
2023-05-21T23:57:39.611Z,65.85
